sensor_id;sensor_type;location;lat;lon;timestamp;temperature;humidity
19017;DHT22;9641;51.494;6.670;2023-05-21T00:00:46;13.40;1.00
19017;DHT22;9641;51.494;6.670;2023-05-21T00:03:14;13.50;1.00
19017;DHT22;9641;51.494;6.670;2023-05-21T00:05:42;13.50;1.00
19017;DHT22;9641;51.494;6.670;2023-05-21T00:08:09;13.50;1.00
19017;DHT22;9641;51.494;6.670;2023-05-21T00:10:36;13.50;1.00
19017;DHT22;9641;51.494;6.670;2023-05-21T00:13:03;13.60;1.00
19017;DHT22;9641;51.494;6.670;2023-05-21T00:15:31;13.60;1.00
19017;DHT22;9641;51.494;6.670;2023-05-21T00:17:58;13.60;1.00
19017;DHT22;9641;51.494;6.670;2023-05-21T00:20:25;13.60;1.00
19017;DHT22;9641;51.494;6.670;2023-05-21T00:22:53;13.60;1.00
19017;DHT22;9641;51.494;6.670;2023-05-21T00:25:20;13.50;1.00
19017;DHT22;9641;51.494;6.670;2023-05-21T00:27:47;13.50;1.00
19017;DHT22;9641;51.494;6.670;2023-05-21T00:30:14;13.50;1.00
19017;DHT22;9641;51.494;6.670;2023-05-21T00:32:42;13.40;1.00
19017;DHT22;9641;51.494;6.670;2023-05-21T00:35:09;13.30;4.50
19017;DHT22;9641;51.494;6.670;2023-05-21T00:37:37;13.20;34.40
19017;DHT22;9641;51.494;6.670;2023-05-21T00:40:05;13.30;46.20
19017;DHT22;9641;51.494;6.670;2023-05-21T00:42:33;13.30;50.30
19017;DHT22;9641;51.494;6.670;2023-05-21T00:45:04;13.30;44.60
19017;DHT22;9641;51.494;6.670;2023-05-21T00:47:32;13.30;49.20
19017;DHT22;9641;51.494;6.670;2023-05-21T00:50:00;13.40;47.40
19017;DHT22;9641;51.494;6.670;2023-05-21T00:52:27;13.30;41.50
19017;DHT22;9641;51.494;6.670;2023-05-21T00:54:54;13.40;38.90
19017;DHT22;9641;51.494;6.670;2023-05-21T00:57:23;13.30;32.00
19017;DHT22;9641;51.494;6.670;2023-05-21T00:59:52;13.40;36.20
19017;DHT22;9641;51.494;6.670;2023-05-21T01:02:19;13.40;25.90
19017;DHT22;9641;51.494;6.670;2023-05-21T01:04:49;13.40;14.30
19017;DHT22;9641;51.494;6.670;2023-05-21T01:07:17;13.40;16.70
19017;DHT22;9641;51.494;6.670;2023-05-21T01:09:44;13.50;12.50
19017;DHT22;9641;51.494;6.670;2023-05-21T01:12:12;13.50;11.50
19017;DHT22;9641;51.494;6.670;2023-05-21T01:14:40;13.40;14.00
19017;DHT22;9641;51.494;6.670;2023-05-21T01:17:08;13.30;30.30
19017;DHT22;9641;51.494;6.670;2023-05-21T01:19:36;13.40;27.40
19017;DHT22;9641;51.494;6.670;2023-05-21T01:22:04;13.30;23.40
19017;DHT22;9641;51.494;6.670;2023-05-21T01:24:33;13.40;27.50
19017;DHT22;9641;51.494;6.670;2023-05-21T01:27:02;13.40;7.50
19017;DHT22;9641;51.494;6.670;2023-05-21T01:29:32;13.30;17.60
19017;DHT22;9641;51.494;6.670;2023-05-21T01:32:03;13.30;6.90
19017;DHT22;9641;51.494;6.670;2023-05-21T01:34:37;13.30;8.80
19017;DHT22;9641;51.494;6.670;2023-05-21T01:37:11;13.30;13.80
19017;DHT22;9641;51.494;6.670;2023-05-21T01:39:43;13.30;13.40
19017;DHT22;9641;51.494;6.670;2023-05-21T01:42:14;13.30;20.70
19017;DHT22;9641;51.494;6.670;2023-05-21T01:44:42;13.40;7.30
19017;DHT22;9641;51.494;6.670;2023-05-21T01:47:11;13.40;1.00
19017;DHT22;9641;51.494;6.670;2023-05-21T01:49:39;13.40;1.00
19017;DHT22;9641;51.494;6.670;2023-05-21T01:52:06;13.40;1.00
19017;DHT22;9641;51.494;6.670;2023-05-21T01:54:32;13.30;10.00
19017;DHT22;9641;51.494;6.670;2023-05-21T01:57:01;13.30;8.70
19017;DHT22;9641;51.494;6.670;2023-05-21T01:59:28;13.40;1.00
19017;DHT22;9641;51.494;6.670;2023-05-21T02:01:55;13.30;9.50
19017;DHT22;9641;51.494;6.670;2023-05-21T02:04:22;13.30;15.60
19017;DHT22;9641;51.494;6.670;2023-05-21T02:06:48;13.20;29.70
19017;DHT22;9641;51.494;6.670;2023-05-21T02:09:18;13.20;31.30
19017;DHT22;9641;51.494;6.670;2023-05-21T02:11:45;13.10;37.80
19017;DHT22;9641;51.494;6.670;2023-05-21T02:14:13;13.00;53.60
19017;DHT22;9641;51.494;6.670;2023-05-21T02:16:41;13.10;71.80
19017;DHT22;9641;51.494;6.670;2023-05-21T02:19:08;13.10;78.70
19017;DHT22;9641;51.494;6.670;2023-05-21T02:21:35;13.00;80.90
19017;DHT22;9641;51.494;6.670;2023-05-21T02:24:03;13.00;97.70
19017;DHT22;9641;51.494;6.670;2023-05-21T02:26:29;12.90;99.90
19017;DHT22;9641;51.494;6.670;2023-05-21T02:28:57;12.90;99.90
19017;DHT22;9641;51.494;6.670;2023-05-21T02:31:25;13.00;99.90
19017;DHT22;9641;51.494;6.670;2023-05-21T02:33:52;12.90;99.90
19017;DHT22;9641;51.494;6.670;2023-05-21T02:36:19;12.90;99.90
19017;DHT22;9641;51.494;6.670;2023-05-21T02:38:45;12.90;99.90
19017;DHT22;9641;51.494;6.670;2023-05-21T02:41:12;13.00;99.90
19017;DHT22;9641;51.494;6.670;2023-05-21T02:43:39;13.00;99.90
19017;DHT22;9641;51.494;6.670;2023-05-21T02:46:06;12.90;99.90
19017;DHT22;9641;51.494;6.670;2023-05-21T02:48:35;13.00;99.90
19017;DHT22;9641;51.494;6.670;2023-05-21T02:51:03;13.00;99.90
19017;DHT22;9641;51.494;6.670;2023-05-21T02:53:30;13.00;99.90
19017;DHT22;9641;51.494;6.670;2023-05-21T02:55:57;12.90;99.90
19017;DHT22;9641;51.494;6.670;2023-05-21T02:58:24;12.90;99.90
19017;DHT22;9641;51.494;6.670;2023-05-21T03:00:51;12.90;99.90
19017;DHT22;9641;51.494;6.670;2023-05-21T03:03:18;12.90;99.90
19017;DHT22;9641;51.494;6.670;2023-05-21T03:05:47;12.90;99.90
19017;DHT22;9641;51.494;6.670;2023-05-21T03:08:13;12.90;99.90
19017;DHT22;9641;51.494;6.670;2023-05-21T03:10:41;12.80;99.90
19017;DHT22;9641;51.494;6.670;2023-05-21T03:13:08;12.90;99.90
19017;DHT22;9641;51.494;6.670;2023-05-21T03:15:35;12.80;99.90
19017;DHT22;9641;51.494;6.670;2023-05-21T03:18:03;12.80;99.90
19017;DHT22;9641;51.494;6.670;2023-05-21T03:20:30;12.80;99.90
19017;DHT22;9641;51.494;6.670;2023-05-21T03:22:59;12.80;99.90
19017;DHT22;9641;51.494;6.670;2023-05-21T03:25:28;12.80;99.90
19017;DHT22;9641;51.494;6.670;2023-05-21T03:27:56;12.80;99.90
19017;DHT22;9641;51.494;6.670;2023-05-21T03:30:40;12.80;99.90
19017;DHT22;9641;51.494;6.670;2023-05-21T03:33:29;12.80;99.90
19017;DHT22;9641;51.494;6.670;2023-05-21T03:35:56;12.80;99.90
19017;DHT22;9641;51.494;6.670;2023-05-21T03:38:27;12.80;99.90
19017;DHT22;9641;51.494;6.670;2023-05-21T03:40:54;12.80;99.90
19017;DHT22;9641;51.494;6.670;2023-05-21T03:43:21;12.70;99.90
19017;DHT22;9641;51.494;6.670;2023-05-21T03:45:49;12.80;99.90
19017;DHT22;9641;51.494;6.670;2023-05-21T03:48:36;12.80;99.90
19017;DHT22;9641;51.494;6.670;2023-05-21T03:51:03;12.80;99.90
19017;DHT22;9641;51.494;6.670;2023-05-21T03:53:32;12.80;99.90
19017;DHT22;9641;51.494;6.670;2023-05-21T03:56:00;12.70;99.90
19017;DHT22;9641;51.494;6.670;2023-05-21T03:58:29;12.70;99.90
19017;DHT22;9641;51.494;6.670;2023-05-21T04:00:57;12.80;99.90
19017;DHT22;9641;51.494;6.670;2023-05-21T04:03:26;12.80;99.90
19017;DHT22;9641;51.494;6.670;2023-05-21T04:05:53;12.70;99.90
19017;DHT22;9641;51.494;6.670;2023-05-21T04:08:21;12.80;99.90
19017;DHT22;9641;51.494;6.670;2023-05-21T04:10:49;12.80;99.90
19017;DHT22;9641;51.494;6.670;2023-05-21T04:13:16;12.80;99.90
19017;DHT22;9641;51.494;6.670;2023-05-21T04:15:43;12.80;99.90
19017;DHT22;9641;51.494;6.670;2023-05-21T04:18:11;12.80;99.90
19017;DHT22;9641;51.494;6.670;2023-05-21T04:20:38;12.80;99.90
19017;DHT22;9641;51.494;6.670;2023-05-21T04:23:05;12.90;99.90
19017;DHT22;9641;51.494;6.670;2023-05-21T04:25:32;12.90;99.90
19017;DHT22;9641;51.494;6.670;2023-05-21T04:28:00;12.90;99.90
19017;DHT22;9641;51.494;6.670;2023-05-21T04:30:27;12.90;99.90
19017;DHT22;9641;51.494;6.670;2023-05-21T04:32:54;12.90;99.90
19017;DHT22;9641;51.494;6.670;2023-05-21T04:35:22;12.80;99.90
19017;DHT22;9641;51.494;6.670;2023-05-21T04:37:49;12.90;99.90
19017;DHT22;9641;51.494;6.670;2023-05-21T04:40:16;12.90;99.90
19017;DHT22;9641;51.494;6.670;2023-05-21T04:42:48;13.00;99.90
19017;DHT22;9641;51.494;6.670;2023-05-21T04:45:19;13.00;99.90
19017;DHT22;9641;51.494;6.670;2023-05-21T04:47:49;13.10;99.90
19017;DHT22;9641;51.494;6.670;2023-05-21T04:50:16;13.10;99.90
19017;DHT22;9641;51.494;6.670;2023-05-21T04:52:44;13.10;99.90
19017;DHT22;9641;51.494;6.670;2023-05-21T04:55:12;13.20;99.90
19017;DHT22;9641;51.494;6.670;2023-05-21T04:57:38;13.20;99.90
19017;DHT22;9641;51.494;6.670;2023-05-21T05:00:07;13.20;99.90
19017;DHT22;9641;51.494;6.670;2023-05-21T05:02:41;13.30;99.90
19017;DHT22;9641;51.494;6.670;2023-05-21T05:05:09;13.30;99.90
19017;DHT22;9641;51.494;6.670;2023-05-21T05:07:36;13.40;99.90
19017;DHT22;9641;51.494;6.670;2023-05-21T05:10:03;13.40;99.90
19017;DHT22;9641;51.494;6.670;2023-05-21T05:12:31;13.50;99.90
19017;DHT22;9641;51.494;6.670;2023-05-21T05:14:58;13.50;99.90
19017;DHT22;9641;51.494;6.670;2023-05-21T05:17:26;13.60;99.90
19017;DHT22;9641;51.494;6.670;2023-05-21T05:19:54;13.60;99.90
19017;DHT22;9641;51.494;6.670;2023-05-21T05:22:21;13.70;99.90
19017;DHT22;9641;51.494;6.670;2023-05-21T05:24:48;13.70;99.90
19017;DHT22;9641;51.494;6.670;2023-05-21T05:27:15;13.70;99.90
19017;DHT22;9641;51.494;6.670;2023-05-21T05:29:43;13.80;99.90
19017;DHT22;9641;51.494;6.670;2023-05-21T05:32:10;13.80;99.90
19017;DHT22;9641;51.494;6.670;2023-05-21T05:34:37;13.90;99.90
19017;DHT22;9641;51.494;6.670;2023-05-21T05:37:05;13.90;99.90
19017;DHT22;9641;51.494;6.670;2023-05-21T05:39:33;14.00;99.90
19017;DHT22;9641;51.494;6.670;2023-05-21T05:42:00;14.00;99.90
19017;DHT22;9641;51.494;6.670;2023-05-21T05:44:27;14.10;99.90
19017;DHT22;9641;51.494;6.670;2023-05-21T05:46:54;14.30;99.90
19017;DHT22;9641;51.494;6.670;2023-05-21T05:49:21;14.30;99.90
19017;DHT22;9641;51.494;6.670;2023-05-21T05:51:48;14.40;99.90
19017;DHT22;9641;51.494;6.670;2023-05-21T05:54:16;14.50;98.60
19017;DHT22;9641;51.494;6.670;2023-05-21T05:56:44;14.60;99.50
19017;DHT22;9641;51.494;6.670;2023-05-21T05:59:11;14.70;80.50
19017;DHT22;9641;51.494;6.670;2023-05-21T06:01:38;14.90;57.70
19017;DHT22;9641;51.494;6.670;2023-05-21T06:04:07;15.00;22.90
19017;DHT22;9641;51.494;6.670;2023-05-21T06:06:34;14.90;36.60
19017;DHT22;9641;51.494;6.670;2023-05-21T06:09:02;15.00;31.00
19017;DHT22;9641;51.494;6.670;2023-05-21T06:11:32;15.00;50.80
19017;DHT22;9641;51.494;6.670;2023-05-21T06:13:59;15.10;33.70
19017;DHT22;9641;51.494;6.670;2023-05-21T06:16:27;15.00;52.00
19017;DHT22;9641;51.494;6.670;2023-05-21T06:18:55;15.00;36.10
19017;DHT22;9641;51.494;6.670;2023-05-21T06:21:22;15.00;46.60
19017;DHT22;9641;51.494;6.670;2023-05-21T06:23:49;15.00;77.10
19017;DHT22;9641;51.494;6.670;2023-05-21T06:26:16;14.90;33.10
19017;DHT22;9641;51.494;6.670;2023-05-21T06:28:47;15.00;68.90
19017;DHT22;9641;51.494;6.670;2023-05-21T06:31:14;15.10;53.80
19017;DHT22;9641;51.494;6.670;2023-05-21T06:33:43;15.10;44.50
19017;DHT22;9641;51.494;6.670;2023-05-21T06:36:10;15.10;1.00
19017;DHT22;9641;51.494;6.670;2023-05-21T06:38:36;15.20;4.30
19017;DHT22;9641;51.494;6.670;2023-05-21T06:41:03;15.10;27.00
19017;DHT22;9641;51.494;6.670;2023-05-21T06:43:48;15.10;41.70
19017;DHT22;9641;51.494;6.670;2023-05-21T06:46:33;15.20;35.10
19017;DHT22;9641;51.494;6.670;2023-05-21T06:49:03;15.40;4.60
19017;DHT22;9641;51.494;6.670;2023-05-21T06:51:31;15.30;1.90
19017;DHT22;9641;51.494;6.670;2023-05-21T06:53:58;15.30;4.30
19017;DHT22;9641;51.494;6.670;2023-05-21T06:56:27;15.30;1.00
19017;DHT22;9641;51.494;6.670;2023-05-21T06:58:55;15.20;32.30
19017;DHT22;9641;51.494;6.670;2023-05-21T07:01:22;15.30;25.70
19017;DHT22;9641;51.494;6.670;2023-05-21T07:03:55;15.50;1.00
19017;DHT22;9641;51.494;6.670;2023-05-21T07:06:24;15.60;1.00
19017;DHT22;9641;51.494;6.670;2023-05-21T07:08:51;15.70;1.00
19017;DHT22;9641;51.494;6.670;2023-05-21T07:11:18;15.80;1.00
19017;DHT22;9641;51.494;6.670;2023-05-21T07:13:46;15.90;1.00
19017;DHT22;9641;51.494;6.670;2023-05-21T07:16:16;16.00;1.00
19017;DHT22;9641;51.494;6.670;2023-05-21T07:18:43;16.10;1.00
19017;DHT22;9641;51.494;6.670;2023-05-21T07:21:10;16.30;1.00
19017;DHT22;9641;51.494;6.670;2023-05-21T07:23:38;16.40;1.00
19017;DHT22;9641;51.494;6.670;2023-05-21T07:26:08;16.50;1.00
19017;DHT22;9641;51.494;6.670;2023-05-21T07:28:35;16.40;1.00
19017;DHT22;9641;51.494;6.670;2023-05-21T07:31:02;16.60;1.00
19017;DHT22;9641;51.494;6.670;2023-05-21T07:33:37;16.80;1.00
19017;DHT22;9641;51.494;6.670;2023-05-21T07:36:04;16.70;1.00
19017;DHT22;9641;51.494;6.670;2023-05-21T07:38:31;16.80;1.00
19017;DHT22;9641;51.494;6.670;2023-05-21T07:40:59;16.90;1.00
19017;DHT22;9641;51.494;6.670;2023-05-21T07:43:25;17.00;1.00
19017;DHT22;9641;51.494;6.670;2023-05-21T07:45:55;17.10;1.00
19017;DHT22;9641;51.494;6.670;2023-05-21T07:48:22;17.20;1.00
19017;DHT22;9641;51.494;6.670;2023-05-21T07:50:57;17.30;1.00
19017;DHT22;9641;51.494;6.670;2023-05-21T07:53:25;17.60;1.00
19017;DHT22;9641;51.494;6.670;2023-05-21T07:55:53;17.60;1.00
19017;DHT22;9641;51.494;6.670;2023-05-21T07:58:24;17.80;1.00
19017;DHT22;9641;51.494;6.670;2023-05-21T08:00:52;17.90;1.00
19017;DHT22;9641;51.494;6.670;2023-05-21T08:03:19;18.00;1.00
19017;DHT22;9641;51.494;6.670;2023-05-21T08:05:46;17.80;99.90
19017;DHT22;9641;51.494;6.670;2023-05-21T08:08:19;18.00;1.00
19017;DHT22;9641;51.494;6.670;2023-05-21T08:10:48;18.10;99.90
19017;DHT22;9641;51.494;6.670;2023-05-21T08:13:17;18.20;99.90
19017;DHT22;9641;51.494;6.670;2023-05-21T08:15:46;18.30;1.00
19017;DHT22;9641;51.494;6.670;2023-05-21T08:18:14;18.30;1.00
19017;DHT22;9641;51.494;6.670;2023-05-21T08:20:43;18.50;1.00
19017;DHT22;9641;51.494;6.670;2023-05-21T08:23:11;18.70;1.00
19017;DHT22;9641;51.494;6.670;2023-05-21T08:25:48;18.60;1.00
19017;DHT22;9641;51.494;6.670;2023-05-21T08:28:38;18.70;81.00
19017;DHT22;9641;51.494;6.670;2023-05-21T08:31:05;18.60;1.00
19017;DHT22;9641;51.494;6.670;2023-05-21T08:33:34;18.60;99.90
19017;DHT22;9641;51.494;6.670;2023-05-21T08:36:04;18.80;1.00
19017;DHT22;9641;51.494;6.670;2023-05-21T08:38:37;18.80;1.00
19017;DHT22;9641;51.494;6.670;2023-05-21T08:41:15;18.80;1.00
19017;DHT22;9641;51.494;6.670;2023-05-21T08:43:45;18.90;1.00
19017;DHT22;9641;51.494;6.670;2023-05-21T08:49:04;19.00;99.90
19017;DHT22;9641;51.494;6.670;2023-05-21T08:51:32;19.10;1.00
19017;DHT22;9641;51.494;6.670;2023-05-21T08:54:00;19.00;1.00
19017;DHT22;9641;51.494;6.670;2023-05-21T08:56:33;18.80;99.90
19017;DHT22;9641;51.494;6.670;2023-05-21T08:59:01;18.90;99.90
19017;DHT22;9641;51.494;6.670;2023-05-21T09:01:35;19.10;1.00
19017;DHT22;9641;51.494;6.670;2023-05-21T09:04:18;18.80;1.00
19017;DHT22;9641;51.494;6.670;2023-05-21T09:09:54;18.90;1.00
19017;DHT22;9641;51.494;6.670;2023-05-21T09:12:31;19.20;99.90
19017;DHT22;9641;51.494;6.670;2023-05-21T09:15:10;19.20;97.20
19017;DHT22;9641;51.494;6.670;2023-05-21T09:17:38;19.50;1.00
19017;DHT22;9641;51.494;6.670;2023-05-21T09:20:26;19.50;99.90
19017;DHT22;9641;51.494;6.670;2023-05-21T09:23:02;19.60;99.90
19017;DHT22;9641;51.494;6.670;2023-05-21T09:25:29;19.60;1.00
19017;DHT22;9641;51.494;6.670;2023-05-21T09:28:10;19.60;1.00
19017;DHT22;9641;51.494;6.670;2023-05-21T09:30:43;19.40;99.90
19017;DHT22;9641;51.494;6.670;2023-05-21T09:33:10;19.50;99.90
19017;DHT22;9641;51.494;6.670;2023-05-21T09:35:43;19.70;99.90
19017;DHT22;9641;51.494;6.670;2023-05-21T09:38:13;19.60;99.90
19017;DHT22;9641;51.494;6.670;2023-05-21T09:40:43;19.50;99.90
19017;DHT22;9641;51.494;6.670;2023-05-21T09:43:14;19.60;1.00
19017;DHT22;9641;51.494;6.670;2023-05-21T09:45:50;19.80;99.90
19017;DHT22;9641;51.494;6.670;2023-05-21T09:48:32;19.90;11.30
19017;DHT22;9641;51.494;6.670;2023-05-21T09:51:12;20.00;1.00
19017;DHT22;9641;51.494;6.670;2023-05-21T09:53:48;20.00;1.00
19017;DHT22;9641;51.494;6.670;2023-05-21T09:56:18;19.80;99.90
19017;DHT22;9641;51.494;6.670;2023-05-21T09:58:50;20.10;1.00
19017;DHT22;9641;51.494;6.670;2023-05-21T10:01:19;20.10;1.00
19017;DHT22;9641;51.494;6.670;2023-05-21T10:03:50;20.30;99.90
19017;DHT22;9641;51.494;6.670;2023-05-21T10:06:19;20.50;99.90
19017;DHT22;9641;51.494;6.670;2023-05-21T10:08:47;20.40;99.40
19017;DHT22;9641;51.494;6.670;2023-05-21T10:11:18;20.40;1.00
19017;DHT22;9641;51.494;6.670;2023-05-21T10:14:01;20.70;1.00
19017;DHT22;9641;51.494;6.670;2023-05-21T10:16:32;20.90;1.00
19017;DHT22;9641;51.494;6.670;2023-05-21T10:19:00;21.20;1.00
19017;DHT22;9641;51.494;6.670;2023-05-21T10:21:27;21.30;1.00
19017;DHT22;9641;51.494;6.670;2023-05-21T10:24:01;21.30;1.00
19017;DHT22;9641;51.494;6.670;2023-05-21T10:26:29;21.00;1.00
19017;DHT22;9641;51.494;6.670;2023-05-21T10:28:58;21.00;1.00
19017;DHT22;9641;51.494;6.670;2023-05-21T10:31:29;21.00;1.00
19017;DHT22;9641;51.494;6.670;2023-05-21T10:33:59;20.90;1.00
19017;DHT22;9641;51.494;6.670;2023-05-21T10:36:29;20.80;1.00
19017;DHT22;9641;51.494;6.670;2023-05-21T10:39:01;21.10;1.00
19017;DHT22;9641;51.494;6.670;2023-05-21T10:41:34;20.90;1.00
19017;DHT22;9641;51.494;6.670;2023-05-21T10:44:12;21.10;1.00
19017;DHT22;9641;51.494;6.670;2023-05-21T10:47:08;21.40;1.00
19017;DHT22;9641;51.494;6.670;2023-05-21T10:49:52;21.20;1.00
19017;DHT22;9641;51.494;6.670;2023-05-21T10:52:38;21.30;1.00
19017;DHT22;9641;51.494;6.670;2023-05-21T10:55:36;21.90;1.00
19017;DHT22;9641;51.494;6.670;2023-05-21T10:58:26;22.30;99.90
19017;DHT22;9641;51.494;6.670;2023-05-21T11:01:01;22.60;99.90
19017;DHT22;9641;51.494;6.670;2023-05-21T11:03:29;22.70;99.90
19017;DHT22;9641;51.494;6.670;2023-05-21T11:05:57;22.70;99.90
19017;DHT22;9641;51.494;6.670;2023-05-21T11:08:26;22.60;99.90
19017;DHT22;9641;51.494;6.670;2023-05-21T11:10:56;23.20;58.90
19017;DHT22;9641;51.494;6.670;2023-05-21T11:13:25;24.30;1.00
19017;DHT22;9641;51.494;6.670;2023-05-21T11:16:06;25.00;1.00
19017;DHT22;9641;51.494;6.670;2023-05-21T11:18:56;24.50;1.00
19017;DHT22;9641;51.494;6.670;2023-05-21T11:21:23;24.50;1.00
19017;DHT22;9641;51.494;6.670;2023-05-21T11:23:53;24.70;1.00
19017;DHT22;9641;51.494;6.670;2023-05-21T11:26:22;25.80;1.00
19017;DHT22;9641;51.494;6.670;2023-05-21T11:28:49;27.00;1.00
19017;DHT22;9641;51.494;6.670;2023-05-21T11:31:25;27.60;1.00
19017;DHT22;9641;51.494;6.670;2023-05-21T11:34:09;26.90;1.00
19017;DHT22;9641;51.494;6.670;2023-05-21T11:36:38;26.40;1.00
19017;DHT22;9641;51.494;6.670;2023-05-21T11:39:09;25.60;1.00
19017;DHT22;9641;51.494;6.670;2023-05-21T11:41:55;25.00;1.00
19017;DHT22;9641;51.494;6.670;2023-05-21T11:44:37;24.60;1.00
19017;DHT22;9641;51.494;6.670;2023-05-21T11:47:07;24.30;1.00
19017;DHT22;9641;51.494;6.670;2023-05-21T11:49:38;24.40;1.00
19017;DHT22;9641;51.494;6.670;2023-05-21T11:52:06;24.80;1.00
19017;DHT22;9641;51.494;6.670;2023-05-21T11:54:40;25.60;1.00
19017;DHT22;9641;51.494;6.670;2023-05-21T11:57:11;25.70;1.00
19017;DHT22;9641;51.494;6.670;2023-05-21T11:59:40;25.60;1.00
19017;DHT22;9641;51.494;6.670;2023-05-21T12:02:13;26.20;1.00
19017;DHT22;9641;51.494;6.670;2023-05-21T12:04:41;27.30;1.00
19017;DHT22;9641;51.494;6.670;2023-05-21T12:07:08;27.80;1.00
19017;DHT22;9641;51.494;6.670;2023-05-21T12:09:39;28.50;99.90
19017;DHT22;9641;51.494;6.670;2023-05-21T12:12:08;28.90;99.90
19017;DHT22;9641;51.494;6.670;2023-05-21T12:14:35;29.20;99.90
19017;DHT22;9641;51.494;6.670;2023-05-21T12:17:03;28.90;99.90
19017;DHT22;9641;51.494;6.670;2023-05-21T12:19:33;28.80;99.90
19017;DHT22;9641;51.494;6.670;2023-05-21T12:22:01;29.20;99.90
19017;DHT22;9641;51.494;6.670;2023-05-21T12:24:29;29.50;99.90
19017;DHT22;9641;51.494;6.670;2023-05-21T12:26:56;28.10;99.90
19017;DHT22;9641;51.494;6.670;2023-05-21T12:29:26;27.50;99.90
19017;DHT22;9641;51.494;6.670;2023-05-21T12:31:53;27.30;99.90
19017;DHT22;9641;51.494;6.670;2023-05-21T12:34:44;27.50;99.90
19017;DHT22;9641;51.494;6.670;2023-05-21T12:37:19;27.10;99.90
19017;DHT22;9641;51.494;6.670;2023-05-21T12:39:48;26.90;99.90
19017;DHT22;9641;51.494;6.670;2023-05-21T12:42:21;27.20;99.90
19017;DHT22;9641;51.494;6.670;2023-05-21T12:44:51;27.60;99.90
19017;DHT22;9641;51.494;6.670;2023-05-21T12:47:22;27.30;99.90
19017;DHT22;9641;51.494;6.670;2023-05-21T12:49:52;28.40;99.90
19017;DHT22;9641;51.494;6.670;2023-05-21T12:52:21;29.50;99.90
19017;DHT22;9641;51.494;6.670;2023-05-21T12:54:51;29.80;99.90
19017;DHT22;9641;51.494;6.670;2023-05-21T12:57:34;30.40;99.90
19017;DHT22;9641;51.494;6.670;2023-05-21T13:00:23;30.90;99.90
19017;DHT22;9641;51.494;6.670;2023-05-21T13:02:52;30.90;99.90
19017;DHT22;9641;51.494;6.670;2023-05-21T13:05:22;31.20;99.90
19017;DHT22;9641;51.494;6.670;2023-05-21T13:07:50;30.70;99.90
19017;DHT22;9641;51.494;6.670;2023-05-21T13:10:17;30.40;99.90
19017;DHT22;9641;51.494;6.670;2023-05-21T13:12:44;30.20;99.90
19017;DHT22;9641;51.494;6.670;2023-05-21T13:15:11;30.30;99.90
19017;DHT22;9641;51.494;6.670;2023-05-21T13:17:38;29.20;99.90
19017;DHT22;9641;51.494;6.670;2023-05-21T13:20:06;29.30;99.90
19017;DHT22;9641;51.494;6.670;2023-05-21T13:22:36;28.90;99.90
19017;DHT22;9641;51.494;6.670;2023-05-21T13:25:07;30.30;99.90
19017;DHT22;9641;51.494;6.670;2023-05-21T13:27:34;31.00;99.90
19017;DHT22;9641;51.494;6.670;2023-05-21T13:30:02;30.70;99.90
19017;DHT22;9641;51.494;6.670;2023-05-21T13:32:29;30.00;99.90
19017;DHT22;9641;51.494;6.670;2023-05-21T13:34:55;29.70;99.90
19017;DHT22;9641;51.494;6.670;2023-05-21T13:37:22;29.10;99.90
19017;DHT22;9641;51.494;6.670;2023-05-21T13:39:50;29.20;99.90
19017;DHT22;9641;51.494;6.670;2023-05-21T13:42:17;30.00;99.90
19017;DHT22;9641;51.494;6.670;2023-05-21T13:44:45;30.60;99.90
19017;DHT22;9641;51.494;6.670;2023-05-21T13:47:13;30.70;99.90
19017;DHT22;9641;51.494;6.670;2023-05-21T13:49:40;30.80;99.90
19017;DHT22;9641;51.494;6.670;2023-05-21T13:52:08;30.60;99.90
19017;DHT22;9641;51.494;6.670;2023-05-21T13:54:35;31.20;99.90
19017;DHT22;9641;51.494;6.670;2023-05-21T13:57:04;31.70;99.90
19017;DHT22;9641;51.494;6.670;2023-05-21T13:59:30;30.70;99.90
19017;DHT22;9641;51.494;6.670;2023-05-21T14:01:57;30.20;99.90
19017;DHT22;9641;51.494;6.670;2023-05-21T14:04:24;30.10;99.90
19017;DHT22;9641;51.494;6.670;2023-05-21T14:06:51;29.90;99.90
19017;DHT22;9641;51.494;6.670;2023-05-21T14:09:18;29.90;99.90
19017;DHT22;9641;51.494;6.670;2023-05-21T14:11:45;29.60;99.90
19017;DHT22;9641;51.494;6.670;2023-05-21T14:14:14;29.90;99.90
19017;DHT22;9641;51.494;6.670;2023-05-21T14:16:44;30.30;99.90
19017;DHT22;9641;51.494;6.670;2023-05-21T14:19:11;31.00;99.90
19017;DHT22;9641;51.494;6.670;2023-05-21T14:21:38;31.50;99.90
19017;DHT22;9641;51.494;6.670;2023-05-21T14:24:05;31.50;99.90
19017;DHT22;9641;51.494;6.670;2023-05-21T14:26:32;30.70;99.90
19017;DHT22;9641;51.494;6.670;2023-05-21T14:29:01;30.40;99.90
19017;DHT22;9641;51.494;6.670;2023-05-21T14:31:29;30.90;99.90
19017;DHT22;9641;51.494;6.670;2023-05-21T14:33:56;31.30;99.90
19017;DHT22;9641;51.494;6.670;2023-05-21T14:36:22;32.20;99.90
19017;DHT22;9641;51.494;6.670;2023-05-21T14:38:49;32.00;99.90
19017;DHT22;9641;51.494;6.670;2023-05-21T14:41:16;31.80;99.90
19017;DHT22;9641;51.494;6.670;2023-05-21T14:43:43;32.60;99.90
19017;DHT22;9641;51.494;6.670;2023-05-21T14:46:10;31.60;99.90
19017;DHT22;9641;51.494;6.670;2023-05-21T14:48:38;31.50;99.90
19017;DHT22;9641;51.494;6.670;2023-05-21T14:51:07;31.60;99.90
19017;DHT22;9641;51.494;6.670;2023-05-21T14:53:33;31.40;99.90
19017;DHT22;9641;51.494;6.670;2023-05-21T14:56:00;32.10;99.90
19017;DHT22;9641;51.494;6.670;2023-05-21T14:58:27;32.80;99.90
19017;DHT22;9641;51.494;6.670;2023-05-21T15:00:54;32.20;99.90
19017;DHT22;9641;51.494;6.670;2023-05-21T15:03:21;32.20;99.90
19017;DHT22;9641;51.494;6.670;2023-05-21T15:05:49;32.30;99.90
19017;DHT22;9641;51.494;6.670;2023-05-21T15:08:16;31.70;99.90
19017;DHT22;9641;51.494;6.670;2023-05-21T15:10:43;31.40;99.90
19017;DHT22;9641;51.494;6.670;2023-05-21T15:13:10;30.80;99.90
19017;DHT22;9641;51.494;6.670;2023-05-21T15:15:37;31.40;99.90
19017;DHT22;9641;51.494;6.670;2023-05-21T15:18:04;32.00;99.90
19017;DHT22;9641;51.494;6.670;2023-05-21T15:20:31;31.70;99.90
19017;DHT22;9641;51.494;6.670;2023-05-21T15:22:59;31.50;99.90
19017;DHT22;9641;51.494;6.670;2023-05-21T15:25:26;30.60;99.90
19017;DHT22;9641;51.494;6.670;2023-05-21T15:27:53;31.00;99.90
19017;DHT22;9641;51.494;6.670;2023-05-21T15:30:20;30.50;99.90
19017;DHT22;9641;51.494;6.670;2023-05-21T15:32:47;30.50;99.90
19017;DHT22;9641;51.494;6.670;2023-05-21T15:35:14;30.30;99.90
19017;DHT22;9641;51.494;6.670;2023-05-21T15:37:41;30.40;99.90
19017;DHT22;9641;51.494;6.670;2023-05-21T15:40:12;30.20;99.90
19017;DHT22;9641;51.494;6.670;2023-05-21T15:42:39;29.60;99.90
19017;DHT22;9641;51.494;6.670;2023-05-21T15:45:07;29.60;99.90
19017;DHT22;9641;51.494;6.670;2023-05-21T15:47:35;29.40;99.90
19017;DHT22;9641;51.494;6.670;2023-05-21T15:50:07;29.00;99.90
19017;DHT22;9641;51.494;6.670;2023-05-21T15:52:34;28.70;99.90
19017;DHT22;9641;51.494;6.670;2023-05-21T15:55:01;28.70;99.90
19017;DHT22;9641;51.494;6.670;2023-05-21T15:57:29;28.00;99.90
19017;DHT22;9641;51.494;6.670;2023-05-21T15:59:56;27.70;99.90
19017;DHT22;9641;51.494;6.670;2023-05-21T16:02:23;27.50;99.90
19017;DHT22;9641;51.494;6.670;2023-05-21T16:04:50;27.20;99.90
19017;DHT22;9641;51.494;6.670;2023-05-21T16:07:17;27.30;99.90
19017;DHT22;9641;51.494;6.670;2023-05-21T16:09:44;27.50;99.90